Time;durP1;ratioP1;P1;durP2;ratioP2;P2;SDS_P1;SDS_P2;PMS_P1;PMS_P2;Temp;Humidity;BMP_temperature;BMP_pressure;BME280_temperature;BME280_humidity;BME280_pressure;Samples;Min_cycle;Max_cycle;Signal;HPM_P1;HPM_P2
2021/05/07 00:01:28;;;;;;;4.15;1.98;;;4.10;99.30;;;;;;5044659;28;20484;-72
2021/05/07 00:03:54;;;;;;;6.43;2.28;;;4.10;99.40;;;;;;5036296;28;20049;-73
2021/05/07 00:06:21;;;;;;;20.58;2.28;;;4.10;99.40;;;;;;5031569;28;20136;-72
2021/05/07 00:08:47;;;;;;;9.63;1.80;;;4.10;99.30;;;;;;5038666;28;20045;-72
2021/05/07 00:11:15;;;;;;;3.08;2.10;;;4.00;99.30;;;;;;5032637;28;20551;-72
2021/05/07 00:13:43;;;;;;;4.07;1.80;;;4.00;99.30;;;;;;5041886;28;20053;-73
2021/05/07 00:16:10;;;;;;;2.97;1.90;;;3.90;99.40;;;;;;5037818;28;20395;-72
2021/05/07 00:18:38;;;;;;;2.85;1.80;;;3.90;99.40;;;;;;5042014;28;20049;-72
2021/05/07 00:21:05;;;;;;;2.33;1.75;;;3.90;99.40;;;;;;5047987;28;20049;-73
2021/05/07 00:23:33;;;;;;;2.70;1.73;;;3.80;99.40;;;;;;5039617;28;20054;-72
2021/05/07 00:26:00;;;;;;;3.17;1.08;;;3.80;99.30;;;;;;5035565;28;20428;-72
2021/05/07 00:28:27;;;;;;;2.83;1.83;;;3.80;99.30;;;;;;5033851;28;20136;-72
2021/05/07 00:30:53;;;;;;;2.20;1.42;;;3.70;99.20;;;;;;5038649;28;20056;-72
2021/05/07 00:33:20;;;;;;;2.20;1.45;;;3.70;99.30;;;;;;5038565;28;20056;-72
2021/05/07 00:35:46;;;;;;;2.67;1.85;;;3.70;99.30;;;;;;5033300;28;20045;-73
2021/05/07 00:38:14;;;;;;;3.45;1.90;;;3.60;99.20;;;;;;5041455;28;20073;-72
2021/05/07 00:40:40;;;;;;;3.95;2.60;;;3.60;99.30;;;;;;5036932;28;20048;-73
2021/05/07 00:43:06;;;;;;;3.55;2.50;;;3.50;99.30;;;;;;5042241;28;20132;-73
2021/05/07 00:45:33;;;;;;;3.22;2.38;;;3.50;99.30;;;;;;5044203;28;20110;-73
2021/05/07 00:48:06;;;;;;;6.20;2.50;;;3.50;99.30;;;;;;5045132;28;20041;-72
2021/05/07 00:50:34;;;;;;;3.80;2.35;;;3.50;99.30;;;;;;5044952;28;20042;-72
2021/05/07 00:53:01;;;;;;;2.38;1.90;;;3.50;99.30;;;;;;5046240;28;20068;-72
2021/05/07 00:55:29;;;;;;;2.88;1.75;;;3.40;99.30;;;;;;5040989;28;20168;-72
2021/05/07 00:57:56;;;;;;;2.80;1.83;;;3.40;99.30;;;;;;5055625;28;20065;-72
2021/05/07 01:00:24;;;;;;;2.78;1.63;;;3.40;99.20;;;;;;5037162;28;20049;-72
2021/05/07 01:02:51;;;;;;;3.22;1.80;;;3.40;99.30;;;;;;5043135;28;20045;-72
2021/05/07 01:05:19;;;;;;;2.05;1.67;;;3.40;99.30;;;;;;5031469;28;20045;-72
2021/05/07 01:07:45;;;;;;;2.45;1.75;;;3.30;99.30;;;;;;5035006;28;20492;-72
2021/05/07 01:10:12;;;;;;;3.13;2.17;;;3.30;99.40;;;;;;5039832;28;20137;-72
2021/05/07 01:12:40;;;;;;;2.67;2.00;;;3.20;99.40;;;;;;5046739;28;20488;-72
2021/05/07 01:15:13;;;;;;;4.32;2.20;;;3.20;99.50;;;;;;5046192;28;20083;-72
2021/05/07 01:17:43;;;;;;;3.50;2.47;;;3.10;99.40;;;;;;5045031;28;20123;-72
2021/05/07 01:20:18;;;;;;;3.28;2.40;;;3.10;99.40;;;;;;5040598;28;20487;-72
2021/05/07 01:22:51;;;;;;;4.35;2.63;;;3.10;99.40;;;;;;5047286;28;20128;-72
2021/05/07 01:25:25;;;;;;;2.70;2.17;;;3.10;99.40;;;;;;5047730;28;20044;-72
2021/05/07 01:27:57;;;;;;;6.20;1.92;;;3.10;99.30;;;;;;5038824;28;20045;-72
2021/05/07 01:30:27;;;;;;;3.53;2.40;;;3.00;99.30;;;;;;5053769;28;20489;-73
2021/05/07 01:32:53;;;;;;;2.03;1.48;;;3.00;99.60;;;;;;5037838;28;20053;-72
2021/05/07 01:35:25;;;;;;;2.53;1.73;;;3.00;99.40;;;;;;5038401;28;20248;-73
2021/05/07 01:38:11;;;;;;;4.00;2.78;;;3.00;99.50;;;;;;5038751;28;20055;-72
2021/05/07 01:40:41;;;;;;;4.70;3.22;;;3.00;99.40;;;;;;5037971;28;20053;-72
2021/05/07 01:43:08;;;;;;;4.50;2.80;;;2.90;99.40;;;;;;5047149;28;20045;-72
2021/05/07 01:45:36;;;;;;;3.55;2.30;;;3.00;99.50;;;;;;5036362;28;20056;-72
2021/05/07 01:48:03;;;;;;;3.17;2.25;;;3.00;99.70;;;;;;5043013;28;20052;-72
2021/05/07 01:50:32;;;;;;;4.30;2.50;;;3.00;99.90;;;;;;5032529;28;20117;-73
2021/05/07 01:52:59;;;;;;;4.28;2.97;;;3.00;99.90;;;;;;5038166;28;20041;-72
2021/05/07 01:55:29;;;;;;;4.28;2.75;;;3.10;99.90;;;;;;5040691;28;21634;-73
2021/05/07 01:57:57;;;;;;;4.50;2.70;;;3.10;99.90;;;;;;5039517;28;20567;-72
2021/05/07 02:00:25;;;;;;;4.43;3.15;;;3.10;99.90;;;;;;5041594;28;20049;-72
2021/05/07 02:02:53;;;;;;;4.40;3.25;;;3.20;99.90;;;;;;5042807;28;20049;-72
2021/05/07 02:05:20;;;;;;;6.13;3.00;;;3.20;99.90;;;;;;5040282;28;20069;-72
2021/05/07 02:07:47;;;;;;;5.95;3.20;;;3.20;99.90;;;;;;5038647;28;20041;-72
2021/05/07 02:10:17;;;;;;;4.40;2.53;;;3.20;99.90;;;;;;5037039;28;20045;-72
2021/05/07 02:12:43;;;;;;;3.83;2.75;;;3.30;99.90;;;;;;5037426;28;20464;-73
2021/05/07 02:15:13;;;;;;;4.30;3.10;;;3.30;99.90;;;;;;5035406;28;20049;-72
2021/05/07 02:17:39;;;;;;;6.03;3.50;;;3.30;99.90;;;;;;5037768;28;20044;-72
2021/05/07 02:20:07;;;;;;;4.90;3.25;;;3.40;99.90;;;;;;5043224;28;20160;-72
2021/05/07 02:22:34;;;;;;;4.53;2.90;;;3.40;99.90;;;;;;5044118;28;20088;-73
2021/05/07 02:25:01;;;;;;;4.10;2.63;;;3.40;99.90;;;;;;5040657;28;20052;-72
2021/05/07 02:27:27;;;;;;;4.45;3.17;;;3.40;99.90;;;;;;5030569;28;20042;-72
2021/05/07 02:29:53;;;;;;;5.32;3.00;;;3.30;99.90;;;;;;5032191;28;20151;-72
2021/05/07 02:32:20;;;;;;;5.30;3.03;;;3.30;99.90;;;;;;5038337;28;20037;-72
2021/05/07 02:34:48;;;;;;;3.75;2.92;;;3.40;99.90;;;;;;5035229;28;20140;-73
2021/05/07 02:37:14;;;;;;;3.33;2.58;;;3.40;99.90;;;;;;5033749;28;20170;-72
2021/05/07 02:39:41;;;;;;;4.32;2.67;;;3.40;99.90;;;;;;5041696;28;20045;-72
2021/05/07 02:42:07;;;;;;;5.25;3.28;;;3.40;99.90;;;;;;5043279;28;20041;-72
2021/05/07 02:44:33;;;;;;;4.60;3.13;;;3.40;99.90;;;;;;5037259;28;20056;-72
2021/05/07 02:47:06;;;;;;;3.78;2.55;;;3.40;99.90;;;;;;5033327;28;20041;-72
2021/05/07 02:49:35;;;;;;;3.08;2.33;;;3.40;99.90;;;;;;5040608;28;20081;-72
2021/05/07 02:52:03;;;;;;;4.10;2.67;;;3.40;99.90;;;;;;5042304;28;20175;-72
2021/05/07 02:54:30;;;;;;;5.95;3.28;;;3.40;99.90;;;;;;5042531;28;20049;-72
2021/05/07 02:56:57;;;;;;;5.50;3.42;;;3.40;99.90;;;;;;5034052;28;20076;-72
2021/05/07 02:59:23;;;;;;;5.00;3.10;;;3.50;99.90;;;;;;5037402;28;20049;-73
2021/05/07 03:01:50;;;;;;;5.40;3.35;;;3.50;99.90;;;;;;5042932;28;20045;-72
2021/05/07 03:04:18;;;;;;;4.15;2.88;;;3.60;99.90;;;;;;5046177;28;20049;-72
2021/05/07 03:06:53;;;;;;;4.82;2.90;;;3.60;99.90;;;;;;5040712;28;20045;-73
2021/05/07 03:09:19;;;;;;;5.07;3.25;;;3.60;99.90;;;;;;5037854;28;20172;-72
2021/05/07 03:11:46;;;;;;;4.55;3.28;;;3.60;99.90;;;;;;5035114;28;20167;-72
2021/05/07 03:14:12;;;;;;;5.85;3.53;;;3.60;99.90;;;;;;5038717;28;20089;-72
2021/05/07 03:16:39;;;;;;;5.70;3.83;;;3.70;99.90;;;;;;5033070;28;20053;-72
2021/05/07 03:19:06;;;;;;;4.60;3.20;;;3.70;99.90;;;;;;5045360;28;20049;-72
2021/05/07 03:21:33;;;;;;;5.88;3.45;;;3.80;99.90;;;;;;5035814;28;20085;-72
2021/05/07 03:24:00;;;;;;;6.72;4.18;;;3.80;99.90;;;;;;5038837;28;20136;-71
2021/05/07 03:26:26;;;;;;;5.38;3.40;;;3.90;99.90;;;;;;5033078;28;20071;-72
2021/05/07 03:28:53;;;;;;;4.90;2.85;;;3.90;99.90;;;;;;5047116;28;20075;-72
2021/05/07 03:31:19;;;;;;;2.83;2.20;;;4.00;99.90;;;;;;5035333;28;20076;-73
2021/05/07 03:33:46;;;;;;;5.85;2.55;;;4.00;99.90;;;;;;5034941;28;20057;-73
2021/05/07 03:36:14;;;;;;;4.38;2.35;;;4.00;99.90;;;;;;5042995;28;20049;-71
2021/05/07 03:38:41;;;;;;;4.67;2.50;;;4.00;99.90;;;;;;5029475;28;20108;-72
2021/05/07 03:41:08;;;;;;;3.95;2.13;;;4.00;99.90;;;;;;5026743;28;20174;-72
2021/05/07 03:43:35;;;;;;;2.78;1.65;;;4.00;99.90;;;;;;5038902;28;20385;-72
2021/05/07 03:46:02;;;;;;;2.80;1.60;;;4.00;99.90;;;;;;5038508;28;20083;-72
2021/05/07 03:48:28;;;;;;;3.40;1.35;;;4.10;99.90;;;;;;5038355;28;20388;-72
2021/05/07 03:50:56;;;;;;;1.58;1.10;;;4.10;99.90;;;;;;5038425;28;20128;-73
2021/05/07 03:53:22;;;;;;;1.90;1.20;;;4.10;99.90;;;;;;5042034;28;20395;-72
2021/05/07 03:55:49;;;;;;;1.92;1.20;;;4.10;99.90;;;;;;5037416;28;20411;-72
2021/05/07 03:58:17;;;;;;;1.15;0.90;;;4.00;99.90;;;;;;5040943;28;20366;-72
2021/05/07 04:00:44;;;;;;;2.13;1.20;;;4.00;99.90;;;;;;5040329;28;20045;-72
2021/05/07 04:03:10;;;;;;;1.60;0.90;;;4.00;99.90;;;;;;5047190;28;20498;-72
2021/05/07 04:05:37;;;;;;;2.13;1.10;;;4.00;99.90;;;;;;5042663;28;20130;-72
2021/05/07 04:08:25;;;;;;;2.00;0.98;;;4.00;99.90;;;;;;5043142;28;20045;-72
2021/05/07 04:11:26;;;;;;;1.00;0.75;;;3.90;99.90;;;;;;5044465;28;20497;-73
2021/05/07 04:13:39;;;;;;;1.65;0.90;;;3.70;99.90;;;;;;5041377;28;20045;-72
2021/05/07 04:16:07;;;;;;;2.33;1.10;;;3.60;99.90;;;;;;5041508;28;20076;-72
2021/05/07 04:18:38;;;;;;;1.73;1.02;;;3.50;99.90;;;;;;5046242;28;20045;-72
2021/05/07 04:21:05;;;;;;;2.22;1.10;;;3.40;99.90;;;;;;5044443;28;20291;-73
2021/05/07 04:23:32;;;;;;;0.95;0.85;;;3.40;99.90;;;;;;5040096;28;20045;-72
2021/05/07 04:25:59;;;;;;;1.27;0.98;;;3.30;99.90;;;;;;5046263;28;20060;-73
2021/05/07 04:28:29;;;;;;;1.97;1.13;;;3.30;99.90;;;;;;5040358;28;20466;-72
2021/05/07 04:30:55;;;;;;;2.08;1.10;;;3.30;99.90;;;;;;5034610;28;20051;-73
2021/05/07 04:33:25;;;;;;;1.90;1.05;;;3.20;99.90;;;;;;5039877;28;20140;-72
2021/05/07 04:35:51;;;;;;;1.30;0.88;;;3.20;99.90;;;;;;5038375;28;20042;-72
2021/05/07 04:38:17;;;;;;;3.88;1.30;;;3.30;99.90;;;;;;5036898;28;20076;-72
2021/05/07 04:40:43;;;;;;;1.60;1.17;;;3.40;99.90;;;;;;5037224;28;20045;-72
2021/05/07 04:43:10;;;;;;;3.40;1.20;;;3.40;99.90;;;;;;5036650;28;20057;-73
2021/05/07 04:45:36;;;;;;;1.77;1.20;;;3.50;99.90;;;;;;5040282;28;20053;-72
2021/05/07 04:48:10;;;;;;;1.92;1.20;;;3.50;99.90;;;;;;5045977;28;20045;-72
2021/05/07 04:50:36;;;;;;;2.33;1.02;;;3.50;99.90;;;;;;5035607;28;20102;-72
2021/05/07 04:53:02;;;;;;;5.53;1.40;;;3.60;99.90;;;;;;5034959;28;20053;-72
2021/05/07 04:55:29;;;;;;;1.60;1.08;;;3.60;99.90;;;;;;5040084;28;20132;-73
2021/05/07 04:57:55;;;;;;;1.38;1.10;;;3.70;99.90;;;;;;5045739;28;20143;-72
2021/05/07 05:00:21;;;;;;;3.08;1.40;;;3.70;99.90;;;;;;5036788;28;20171;-73
2021/05/07 05:02:48;;;;;;;1.73;1.15;;;3.80;99.90;;;;;;5040421;28;20120;-72
2021/05/07 05:05:15;;;;;;;1.38;1.20;;;3.80;99.90;;;;;;5047782;28;20045;-73
2021/05/07 05:07:52;;;;;;;3.40;1.20;;;3.80;99.90;;;;;;5038733;28;20556;-72
2021/05/07 05:10:19;;;;;;;2.33;1.00;;;3.90;99.90;;;;;;5041216;28;20361;-72
2021/05/07 05:12:46;;;;;;;2.17;1.05;;;3.90;99.90;;;;;;5043949;28;20057;-72
2021/05/07 05:15:13;;;;;;;2.20;1.20;;;4.00;99.90;;;;;;5035232;28;20555;-72
2021/05/07 05:17:42;;;;;;;2.80;1.15;;;4.00;99.90;;;;;;5040994;28;20435;-72
2021/05/07 05:20:09;;;;;;;2.55;1.20;;;4.00;99.90;;;;;;5039229;28;20148;-73
2021/05/07 05:22:37;;;;;;;2.92;1.10;;;4.00;99.90;;;;;;5037160;28;20053;-72
2021/05/07 05:25:05;;;;;;;3.38;1.40;;;4.10;99.90;;;;;;5044187;28;20490;-72
2021/05/07 05:27:33;;;;;;;1.67;1.05;;;4.10;99.90;;;;;;5035976;28;20059;-73
2021/05/07 05:29:59;;;;;;;1.70;1.10;;;4.20;99.90;;;;;;5033491;28;20045;-73
2021/05/07 05:32:26;;;;;;;1.92;1.17;;;4.20;99.90;;;;;;5034500;28;20081;-73
2021/05/07 05:34:53;;;;;;;1.55;1.17;;;4.30;99.90;;;;;;5036588;28;20530;-73
2021/05/07 05:37:20;;;;;;;1.13;0.90;;;4.30;99.90;;;;;;5035214;28;20113;-72
2021/05/07 05:39:46;;;;;;;2.28;1.25;;;4.40;99.90;;;;;;5038722;28;20061;-72
2021/05/07 05:42:28;;;;;;;1.35;0.90;;;4.50;99.90;;;;;;5033987;28;20069;-72
2021/05/07 05:44:54;;;;;;;1.13;1.02;;;4.60;99.90;;;;;;5038946;28;20080;-73
2021/05/07 05:47:20;;;;;;;2.55;0.93;;;4.60;99.90;;;;;;5035947;28;20040;-73
2021/05/07 05:49:46;;;;;;;1.77;1.10;;;4.60;99.90;;;;;;5038020;28;20041;-72
2021/05/07 05:52:12;;;;;;;1.35;0.98;;;4.70;99.90;;;;;;5040020;28;20491;-73
2021/05/07 05:54:39;;;;;;;1.85;1.00;;;4.70;99.90;;;;;;5033400;28;20049;-72
2021/05/07 05:57:07;;;;;;;1.20;0.90;;;4.80;99.90;;;;;;5028998;28;20045;-72
2021/05/07 05:59:33;;;;;;;1.58;1.02;;;4.80;99.90;;;;;;5027218;28;20222;-73
2021/05/07 06:01:59;;;;;;;2.03;1.00;;;4.90;99.90;;;;;;5026607;28;20204;-72
2021/05/07 06:04:26;;;;;;;1.25;1.10;;;4.90;99.90;;;;;;5032234;28;20497;-73
2021/05/07 06:06:52;;;;;;;2.53;1.20;;;5.00;99.90;;;;;;5035493;28;20138;-73
2021/05/07 06:09:18;;;;;;;1.90;0.88;;;5.10;99.90;;;;;;5040977;28;20132;-72
2021/05/07 06:11:44;;;;;;;1.92;0.80;;;5.10;99.90;;;;;;5030669;28;20045;-72
2021/05/07 06:14:10;;;;;;;1.30;1.00;;;5.20;99.90;;;;;;5030528;28;20453;-73
2021/05/07 06:16:37;;;;;;;1.52;0.90;;;5.30;99.90;;;;;;5035336;28;20358;-73
2021/05/07 06:19:05;;;;;;;1.27;1.02;;;5.30;99.90;;;;;;5041142;28;20045;-72
2021/05/07 06:21:31;;;;;;;1.95;1.10;;;5.40;99.90;;;;;;5038707;28;20411;-73
2021/05/07 06:23:58;;;;;;;1.73;0.90;;;5.40;99.90;;;;;;5040913;28;20059;-72
2021/05/07 06:26:24;;;;;;;1.60;0.90;;;5.40;99.90;;;;;;5032461;28;20107;-72
2021/05/07 06:28:50;;;;;;;3.95;0.88;;;5.50;99.90;;;;;;5044067;28;20044;-73
2021/05/07 06:31:17;;;;;;;1.40;1.10;;;5.50;99.90;;;;;;5039976;28;20070;-72
2021/05/07 06:33:43;;;;;;;1.63;0.85;;;5.60;99.90;;;;;;5041591;28;20047;-73
2021/05/07 06:36:11;;;;;;;1.98;1.10;;;5.70;99.90;;;;;;5037751;28;20060;-72
2021/05/07 06:38:47;;;;;;;0.82;0.70;;;5.80;99.90;;;;;;5040844;28;20056;-73
2021/05/07 06:41:13;;;;;;;1.77;1.20;;;5.90;99.90;;;;;;5034522;28;20699;-73
2021/05/07 06:43:39;;;;;;;1.30;0.80;;;6.00;99.90;;;;;;5039926;28;20107;-73
2021/05/07 06:46:06;;;;;;;2.92;1.10;;;6.00;99.90;;;;;;5037376;28;20076;-72
2021/05/07 06:48:32;;;;;;;2.08;1.08;;;6.10;99.90;;;;;;5036380;28;20527;-72
2021/05/07 06:50:58;;;;;;;1.85;1.10;;;6.10;99.90;;;;;;5031319;28;20045;-73
2021/05/07 06:53:24;;;;;;;2.38;1.30;;;6.20;99.90;;;;;;5036405;28;20146;-73
2021/05/07 06:55:51;;;;;;;1.88;1.15;;;6.30;99.90;;;;;;5035449;28;20041;-73
2021/05/07 06:58:38;;;;;;;1.45;1.10;;;6.40;99.90;;;;;;5038344;28;20052;-73
2021/05/07 07:01:04;;;;;;;1.80;1.30;;;6.50;99.90;;;;;;5037685;28;20140;-73
2021/05/07 07:03:31;;;;;;;2.40;1.13;;;6.60;99.90;;;;;;5040392;28;20059;-72
2021/05/07 07:05:57;;;;;;;2.05;1.20;;;6.60;99.90;;;;;;5035180;28;20517;-73
2021/05/07 07:08:23;;;;;;;1.65;1.00;;;6.60;99.90;;;;;;5036162;28;20050;-73
2021/05/07 07:10:50;;;;;;;2.13;1.23;;;6.70;99.90;;;;;;5037288;28;20457;-72
2021/05/07 07:13:16;;;;;;;2.92;1.48;;;6.70;99.90;;;;;;5036691;28;20191;-72
2021/05/07 07:15:44;;;;;;;3.35;1.60;;;6.70;99.90;;;;;;5032862;28;20137;-72
2021/05/07 07:18:10;;;;;;;3.35;1.45;;;6.70;99.90;;;;;;5038086;28;20135;-72
2021/05/07 07:20:37;;;;;;;3.13;1.60;;;6.80;99.90;;;;;;5039468;28;20060;-72
2021/05/07 07:23:04;;;;;;;2.78;1.63;;;6.90;99.90;;;;;;5034492;28;20476;-72
2021/05/07 07:25:30;;;;;;;3.25;1.85;;;7.00;99.90;;;;;;5041365;28;20488;-73
2021/05/07 07:27:56;;;;;;;2.67;1.52;;;7.00;99.90;;;;;;5039283;28;20061;-72
2021/05/07 07:30:23;;;;;;;2.75;1.52;;;7.00;99.90;;;;;;5041654;28;20080;-72
2021/05/07 07:32:49;;;;;;;4.05;2.30;;;7.00;99.90;;;;;;5043484;28;20041;-73
2021/05/07 07:35:18;;;;;;;2.35;1.50;;;7.00;99.90;;;;;;5037455;28;20077;-72
2021/05/07 07:37:44;;;;;;;;;;;7.10;99.90;;;;;;5035847;28;20045;-72
2021/05/07 07:40:11;;;;;;;1.77;1.30;;;7.20;99.90;;;;;;5038353;28;20003;-73
2021/05/07 07:42:37;;;;;;;3.45;1.63;;;7.20;99.90;;;;;;5041861;28;20564;-73
2021/05/07 07:45:05;;;;;;;3.05;1.77;;;7.20;99.90;;;;;;5041488;28;20550;-73
2021/05/07 07:47:31;;;;;;;3.80;1.37;;;7.30;99.90;;;;;;5039967;28;20051;-73
2021/05/07 07:49:58;;;;;;;3.22;1.98;;;7.40;99.90;;;;;;5035544;28;20053;-74
2021/05/07 07:52:24;;;;;;;2.63;1.90;;;7.50;99.90;;;;;;5041204;28;20041;-73
2021/05/07 07:54:51;;;;;;;2.38;1.65;;;7.60;99.90;;;;;;5040792;28;20131;-73
2021/05/07 07:57:17;;;;;;;3.25;1.90;;;7.70;99.90;;;;;;5042019;28;20118;-72
2021/05/07 07:59:44;;;;;;;3.95;2.25;;;7.80;99.90;;;;;;5039183;28;20041;-73
2021/05/07 08:02:11;;;;;;;4.75;2.20;;;8.00;99.90;;;;;;5043679;28;20578;-73
2021/05/07 08:04:37;;;;;;;3.80;2.13;;;8.10;99.90;;;;;;5040930;28;20044;-72
2021/05/07 08:07:03;;;;;;;3.97;2.17;;;8.10;99.90;;;;;;5037392;28;20131;-73
2021/05/07 08:09:29;;;;;;;2.97;1.90;;;8.20;99.90;;;;;;5045038;28;20056;-73
2021/05/07 08:11:55;;;;;;;4.55;2.28;;;8.30;99.90;;;;;;5042831;28;20484;-73
2021/05/07 08:14:27;;;;;;;3.35;2.33;;;8.30;99.90;;;;;;5041877;28;20138;-73
2021/05/07 08:16:53;;;;;;;4.40;2.20;;;8.50;99.90;;;;;;5035581;28;22141;-72
2021/05/07 08:19:20;;;;;;;4.22;2.38;;;8.70;99.90;;;;;;5030138;28;20500;-73
2021/05/07 08:21:46;;;;;;;4.35;2.03;;;8.90;99.90;;;;;;5043688;28;20397;-73
2021/05/07 08:24:13;;;;;;;4.28;2.28;;;9.00;99.90;;;;;;5028097;28;20045;-73
2021/05/07 08:26:39;;;;;;;3.72;1.90;;;9.20;99.90;;;;;;5031754;28;20140;-72
2021/05/07 08:29:05;;;;;;;3.97;2.10;;;9.30;99.90;;;;;;5040920;28;20539;-73
2021/05/07 08:31:32;;;;;;;4.47;2.10;;;9.50;99.90;;;;;;5039487;28;20470;-73
2021/05/07 08:33:59;;;;;;;4.55;2.05;;;9.60;99.90;;;;;;5041627;28;20045;-73
2021/05/07 08:36:26;;;;;;;5.18;2.15;;;9.80;99.90;;;;;;5035564;28;20049;-72
2021/05/07 08:38:52;;;;;;;3.83;1.77;;;9.90;99.90;;;;;;5043151;28;20051;-73
2021/05/07 08:41:18;;;;;;;4.82;2.17;;;9.90;99.90;;;;;;5040297;28;20485;-73
2021/05/07 08:43:46;;;;;;;4.18;2.10;;;9.70;99.90;;;;;;5044756;28;20044;-73
2021/05/07 08:46:12;;;;;;;6.85;2.45;;;9.40;99.90;;;;;;5040045;28;20053;-73
2021/05/07 08:48:48;;;;;;;4.78;2.40;;;9.20;99.90;;;;;;5041638;28;20049;-73
2021/05/07 08:51:15;;;;;;;5.55;2.60;;;9.10;99.90;;;;;;5038727;28;20087;-73
2021/05/07 08:53:42;;;;;;;5.30;2.42;;;8.90;99.90;;;;;;5042748;28;20047;-73
2021/05/07 08:56:28;;;;;;;4.03;2.20;;;8.90;99.90;;;;;;5039075;28;20048;-73
2021/05/07 08:58:54;;;;;;;4.95;2.28;;;8.90;99.90;;;;;;5043720;28;20053;-73
2021/05/07 09:01:21;;;;;;;3.13;2.15;;;9.00;99.90;;;;;;5039435;28;20049;-73
2021/05/07 09:03:48;;;;;;;3.80;2.08;;;9.10;99.90;;;;;;5043005;28;20072;-72
2021/05/07 09:06:15;;;;;;;3.97;1.95;;;9.30;99.90;;;;;;5037698;28;20045;-73
2021/05/07 09:08:42;;;;;;;4.30;2.50;;;9.60;99.90;;;;;;5039668;28;20049;-72
2021/05/07 09:11:12;;;;;;;4.82;2.05;;;9.70;99.90;;;;;;5041129;28;20297;-72
2021/05/07 09:13:38;;;;;;;4.32;2.38;;;9.80;99.90;;;;;;5041494;28;20531;-72
2021/05/07 09:16:07;;;;;;;2.50;1.70;;;10.00;99.90;;;;;;5037190;28;20072;-72
2021/05/07 09:18:49;;;;;;;5.97;2.30;;;10.10;99.90;;;;;;5042770;28;20049;-72
2021/05/07 09:21:16;;;;;;;4.72;2.60;;;10.20;99.90;;;;;;5040770;28;20045;-72
2021/05/07 09:23:44;;;;;;;3.13;1.92;;;10.40;99.90;;;;;;5044037;28;20599;-73
2021/05/07 09:26:11;;;;;;;4.55;2.20;;;10.70;99.90;;;;;;5037647;28;20045;-73
2021/05/07 09:29:02;;;;;;;5.82;2.25;;;10.90;99.90;;;;;;5041736;28;20146;-73
2021/05/07 09:31:29;;;;;;;4.45;2.28;;;11.00;99.90;;;;;;5037398;28;20044;-73
2021/05/07 09:34:03;;;;;;;4.15;2.33;;;11.10;99.90;;;;;;5044122;28;20472;-72
2021/05/07 09:36:30;;;;;;;6.43;2.15;;;11.00;99.90;;;;;;5035346;28;20053;-73
2021/05/07 09:38:57;;;;;;;4.13;2.30;;;10.80;99.90;;;;;;5041921;28;20074;-73
2021/05/07 09:41:51;;;;;;;4.60;2.20;;;10.70;99.90;;;;;;5031406;28;20056;-73
2021/05/07 09:44:26;;;;;;;3.28;2.05;;;10.60;99.90;;;;;;5042704;28;20064;-73
2021/05/07 09:46:54;;;;;;;4.35;2.15;;;10.80;99.90;;;;;;5039450;28;20044;-73
2021/05/07 09:49:29;;;;;;;7.00;2.70;;;10.90;99.90;;;;;;5041431;28;20496;-72
2021/05/07 09:51:56;;;;;;;6.07;2.60;;;11.00;99.90;;;;;;5039289;28;20497;-72
2021/05/07 09:54:24;;;;;;;4.18;2.40;;;10.90;99.90;;;;;;5028595;28;20071;-72
2021/05/07 09:56:51;;;;;;;5.60;3.03;;;11.00;99.90;;;;;;5038153;28;20546;-72
2021/05/07 09:59:18;;;;;;;4.57;2.58;;;10.90;99.90;;;;;;5040283;28;20132;-73
2021/05/07 10:01:49;;;;;;;5.03;2.55;;;10.90;99.90;;;;;;5037534;28;20048;-73
2021/05/07 10:04:16;;;;;;;5.35;2.45;;;11.10;99.90;;;;;;5043585;28;20131;-73
2021/05/07 10:06:43;;;;;;;4.68;2.20;;;11.10;99.90;;;;;;5035246;28;20139;-73
2021/05/07 10:09:11;;;;;;;4.22;2.55;;;11.20;99.90;;;;;;5041993;28;20064;-73
2021/05/07 10:11:44;;;;;;;4.95;2.42;;;11.30;99.90;;;;;;5038437;28;20216;-73
2021/05/07 10:14:15;;;;;;;4.00;2.58;;;11.50;99.90;;;;;;5042211;28;20124;-73
2021/05/07 10:16:42;;;;;;;3.53;2.50;;;11.60;99.90;;;;;;5038306;28;20486;-72
2021/05/07 10:19:11;;;;;;;5.68;2.25;;;11.70;99.90;;;;;;5040644;28;20103;-72
2021/05/07 10:21:41;;;;;;;5.63;2.53;;;11.70;99.90;;;;;;5038039;28;20053;-73
2021/05/07 10:24:16;;;;;;;4.50;2.25;;;11.60;99.90;;;;;;5042067;28;20110;-72
2021/05/07 10:26:53;;;;;;;3.30;1.95;;;11.40;99.90;;;;;;5037578;28;20514;-72
2021/05/07 10:29:25;;;;;;;3.67;1.77;;;11.10;99.90;;;;;;5041004;28;20052;-72
2021/05/07 10:31:53;;;;;;;3.35;2.13;;;11.00;99.90;;;;;;5036222;28;20395;-73
2021/05/07 10:34:21;;;;;;;3.42;2.10;;;11.00;99.90;;;;;;5042296;28;20049;-73
2021/05/07 10:37:10;;;;;;;4.07;2.33;;;11.30;99.90;;;;;;5033472;28;20049;-72
2021/05/07 10:39:49;;;;;;;3.97;2.10;;;11.50;99.90;;;;;;5037941;28;20518;-73
2021/05/07 10:42:15;;;;;;;4.97;2.15;;;11.60;99.90;;;;;;5038671;28;20073;-73
2021/05/07 10:44:42;;;;;;;3.13;1.73;;;11.60;99.90;;;;;;5034370;28;20404;-73
2021/05/07 10:47:10;;;;;;;4.55;1.75;;;11.60;99.90;;;;;;5035046;28;20045;-73
2021/05/07 10:49:38;;;;;;;5.70;1.90;;;11.70;99.90;;;;;;5040401;28;20041;-73
2021/05/07 10:52:07;;;;;;;4.82;2.35;;;12.00;99.90;;;;;;5037809;28;20056;-73
2021/05/07 10:54:47;;;;;;;;;;;12.10;99.90;;;;;;5036334;28;20063;-73
2021/05/07 10:57:27;;;;;;;4.53;2.08;;;12.20;99.40;;;;;;5042375;28;19924;-73
2021/05/07 11:00:13;;;;;;;3.63;1.85;;;12.40;99.80;;;;;;5037220;28;20240;-73
2021/05/07 11:02:47;;;;;;;4.97;2.65;;;12.60;99.50;;;;;;5041973;28;20477;-73
2021/05/07 11:05:45;;;;;;;3.80;2.28;;;12.70;99.90;;;;;;5055312;28;20468;-73
2021/05/07 11:08:11;;;;;;;4.63;2.53;;;12.70;98.70;;;;;;5045135;28;20053;-73
2021/05/07 11:10:38;;;;;;;6.15;2.25;;;12.90;99.90;;;;;;5042378;28;20386;-73
2021/05/07 11:13:11;;;;;;;3.75;2.22;;;13.30;99.90;;;;;;5042495;28;20110;-73
2021/05/07 11:15:37;;;;;;;3.33;2.20;;;13.60;99.90;;;;;;5038976;28;20055;-73
2021/05/07 11:18:07;;;;;;;3.53;1.73;;;13.70;99.90;;;;;;5031089;28;20060;-73
2021/05/07 11:20:35;;;;;;;3.67;2.08;;;13.80;99.90;;;;;;5043573;28;20432;-73
2021/05/07 11:23:05;;;;;;;5.35;2.60;;;13.70;99.90;;;;;;5042020;28;20045;-73
2021/05/07 11:25:33;;;;;;;3.55;2.13;;;13.40;99.90;;;;;;5041741;28;20059;-73
2021/05/07 11:28:21;;;;;;;3.65;2.03;;;13.20;99.70;;;;;;5043662;28;20053;-73
2021/05/07 11:30:52;;;;;;;3.55;1.92;;;13.20;98.00;;;;;;5042135;28;20051;-73
2021/05/07 11:33:23;;;;;;;4.35;2.50;;;13.50;99.90;;;;;;5040578;28;20107;-73
2021/05/07 11:36:05;;;;;;;3.70;2.08;;;13.80;99.90;;;;;;5040400;28;20041;-73
2021/05/07 11:38:31;;;;;;;3.35;2.20;;;13.80;96.90;;;;;;5044898;28;20061;-73
2021/05/07 11:40:57;;;;;;;3.45;2.30;;;13.70;99.90;;;;;;5040773;28;20266;-73
2021/05/07 11:43:27;;;;;;;3.38;1.98;;;13.50;99.90;;;;;;5044997;28;20055;-73
2021/05/07 11:46:07;;;;;;;3.15;1.77;;;13.60;99.90;;;;;;5039960;28;20052;-73
2021/05/07 11:48:37;;;;;;;3.95;2.10;;;13.70;93.30;;;;;;5042860;28;20502;-73
2021/05/07 11:51:18;;;;;;;2.33;1.70;;;13.60;96.50;;;;;;5038851;28;20041;-73
2021/05/07 11:53:45;;;;;;;3.20;1.90;;;13.40;97.00;;;;;;5043794;28;20107;-72
2021/05/07 11:56:22;;;;;;;4.75;1.65;;;13.20;98.20;;;;;;5041564;28;20045;-73
2021/05/07 11:58:50;;;;;;;2.92;1.52;;;13.10;96.00;;;;;;5045179;28;20136;-73
2021/05/07 12:01:19;;;;;;;3.20;1.77;;;13.10;97.90;;;;;;5041095;28;20136;-73
2021/05/07 12:03:47;;;;;;;3.63;1.70;;;13.00;95.80;;;;;;5043026;28;20051;-73
2021/05/07 12:06:17;;;;;;;3.60;2.10;;;13.00;94.20;;;;;;5039885;28;20134;-73
2021/05/07 12:08:45;;;;;;;3.70;1.63;;;13.00;94.20;;;;;;5040400;28;20037;-72
2021/05/07 12:11:12;;;;;;;1.65;1.35;;;12.90;90.70;;;;;;5042745;28;20442;-72
2021/05/07 12:13:39;;;;;;;3.15;2.05;;;12.80;93.20;;;;;;5044595;28;20052;-73
2021/05/07 12:16:07;;;;;;;4.07;1.50;;;12.80;94.50;;;;;;5040346;28;20468;-72
2021/05/07 12:18:36;;;;;;;2.83;1.75;;;12.70;93.10;;;;;;5045557;28;20639;-73
2021/05/07 12:21:04;;;;;;;5.18;2.28;;;12.70;95.00;;;;;;5042212;28;20057;-73
2021/05/07 12:23:42;;;;;;;4.38;2.50;;;12.80;94.20;;;;;;5044589;28;20048;-73
2021/05/07 12:26:09;;;;;;;4.47;2.53;;;13.00;94.70;;;;;;5039249;28;20147;-73
2021/05/07 12:28:35;;;;;;;3.65;2.17;;;13.30;95.80;;;;;;5041922;28;20059;-73
2021/05/07 12:31:05;;;;;;;7.10;2.53;;;13.40;94.50;;;;;;5039696;28;20076;-72
2021/05/07 12:33:31;;;;;;;4.38;2.58;;;13.40;94.20;;;;;;5039514;28;20045;-73
2021/05/07 12:35:59;;;;;;;4.03;2.60;;;13.40;92.70;;;;;;5039456;28;20040;-73
2021/05/07 12:38:35;;;;;;;5.50;2.73;;;13.20;94.00;;;;;;5041948;28;20128;-72
2021/05/07 12:41:16;;;;;;;3.53;2.15;;;13.00;94.00;;;;;;5038974;28;20406;-72
2021/05/07 12:43:44;;;;;;;4.93;2.22;;;12.90;93.60;;;;;;5043748;28;20102;-73
2021/05/07 12:46:13;;;;;;;4.20;2.30;;;12.90;94.30;;;;;;5039029;28;20412;-73
2021/05/07 12:48:52;;;;;;;5.35;2.25;;;13.00;93.80;;;;;;5043905;28;20041;-73
2021/05/07 12:51:20;;;;;;;3.33;2.30;;;13.10;93.80;;;;;;5040051;28;20447;-73
2021/05/07 12:53:47;;;;;;;1.92;1.58;;;13.10;94.20;;;;;;5042267;28;20061;-73
2021/05/07 12:56:14;;;;;;;3.78;2.50;;;13.10;93.60;;;;;;5037810;28;20056;-73
2021/05/07 12:58:41;;;;;;;5.70;2.20;;;13.00;93.50;;;;;;5043001;28;20080;-74
2021/05/07 13:01:08;;;;;;;3.67;1.98;;;13.00;94.60;;;;;;5041676;28;20080;-73
2021/05/07 13:03:35;;;;;;;3.90;2.08;;;12.90;93.30;;;;;;5043321;28;20078;-73